sensor_id;sensor_type;location;lat;lon;timestamp;pressure;altitude;pressure_sealevel;temperature;humidity
56928;BME280;60850;52.502;13.426;2023-04-23T00:01:27;100277.97;;;13.99;71.25
56928;BME280;60850;52.502;13.426;2023-04-23T00:03:59;100288.78;;;13.97;73.28
56928;BME280;60850;52.502;13.426;2023-04-23T00:06:27;100285.22;;;13.97;74.53
56928;BME280;60850;52.502;13.426;2023-04-23T00:08:56;100279.94;;;13.95;74.45
56928;BME280;60850;52.502;13.426;2023-04-23T00:11:26;100280.81;;;13.96;74.30
56928;BME280;60850;52.502;13.426;2023-04-23T00:13:53;100280.66;;;13.99;74.59
56928;BME280;60850;52.502;13.426;2023-04-23T00:16:21;100282.25;;;14.03;74.41
56928;BME280;60850;52.502;13.426;2023-04-23T00:18:50;100278.63;;;14.04;74.49
56928;BME280;60850;52.502;13.426;2023-04-23T00:21:17;100278.38;;;14.09;75.42
56928;BME280;60850;52.502;13.426;2023-04-23T00:23:44;100269.34;;;14.11;74.72
56928;BME280;60850;52.502;13.426;2023-04-23T00:26:11;100279.13;;;14.12;74.50
56928;BME280;60850;52.502;13.426;2023-04-23T00:28:45;100271.00;;;14.14;74.33
56928;BME280;60850;52.502;13.426;2023-04-23T00:31:13;100272.91;;;14.12;74.95
56928;BME280;60850;52.502;13.426;2023-04-23T00:33:40;100272.97;;;14.10;76.12
56928;BME280;60850;52.502;13.426;2023-04-23T00:36:09;100264.94;;;14.10;75.86
56928;BME280;60850;52.502;13.426;2023-04-23T00:38:35;100272.91;;;14.12;75.99
56928;BME280;60850;52.502;13.426;2023-04-23T00:41:03;100267.06;;;14.21;76.29
56928;BME280;60850;52.502;13.426;2023-04-23T00:43:30;100262.19;;;14.29;75.63
56928;BME280;60850;52.502;13.426;2023-04-23T00:45:58;100254.06;;;14.30;75.83
56928;BME280;60850;52.502;13.426;2023-04-23T00:48:25;100262.47;;;14.42;75.18
56928;BME280;60850;52.502;13.426;2023-04-23T00:50:57;100256.06;;;14.44;75.58
56928;BME280;60850;52.502;13.426;2023-04-23T00:53:26;100254.22;;;14.46;75.72
56928;BME280;60850;52.502;13.426;2023-04-23T00:55:53;100250.50;;;14.49;75.04
56928;BME280;60850;52.502;13.426;2023-04-23T00:58:20;100251.38;;;14.49;74.99
56928;BME280;60850;52.502;13.426;2023-04-23T01:00:49;100248.63;;;14.51;77.15
56928;BME280;60850;52.502;13.426;2023-04-23T01:03:17;100250.38;;;14.52;75.65
56928;BME280;60850;52.502;13.426;2023-04-23T01:05:46;100242.25;;;14.53;75.47
56928;BME280;60850;52.502;13.426;2023-04-23T01:08:15;100252.88;;;14.55;75.63
56928;BME280;60850;52.502;13.426;2023-04-23T01:10:44;100242.06;;;14.56;75.18
56928;BME280;60850;52.502;13.426;2023-04-23T01:13:13;100242.06;;;14.56;74.76
56928;BME280;60850;52.502;13.426;2023-04-23T01:15:41;100248.31;;;14.57;75.50
56928;BME280;60850;52.502;13.426;2023-04-23T01:18:08;100239.31;;;14.58;75.18
56928;BME280;60850;52.502;13.426;2023-04-23T01:20:36;100242.06;;;14.56;75.86
56928;BME280;60850;52.502;13.426;2023-04-23T01:23:05;100246.44;;;14.59;76.11
56928;BME280;60850;52.502;13.426;2023-04-23T01:25:33;100245.63;;;14.57;76.21
56928;BME280;60850;52.502;13.426;2023-04-23T01:28:00;100245.50;;;14.60;76.68
56928;BME280;60850;52.502;13.426;2023-04-23T01:30:28;100244.53;;;14.61;76.52
56928;BME280;60850;52.502;13.426;2023-04-23T01:32:56;100245.31;;;14.63;77.92
56928;BME280;60850;52.502;13.426;2023-04-23T01:35:25;100237.13;;;14.66;77.65
56928;BME280;60850;52.502;13.426;2023-04-23T01:37:52;100241.53;;;14.67;77.95
56928;BME280;60850;52.502;13.426;2023-04-23T01:40:22;100246.81;;;14.69;77.93
56928;BME280;60850;52.502;13.426;2023-04-23T01:42:49;100250.59;;;14.65;78.51
56928;BME280;60850;52.502;13.426;2023-04-23T01:45:16;100243.28;;;14.68;78.71
56928;BME280;60850;52.502;13.426;2023-04-23T01:47:45;100247.59;;;14.71;79.97
56928;BME280;60850;52.502;13.426;2023-04-23T01:50:13;100244.78;;;14.74;80.08
56928;BME280;60850;52.502;13.426;2023-04-23T01:52:40;100241.69;;;14.81;79.33
56928;BME280;60850;52.502;13.426;2023-04-23T01:55:09;100234.59;;;14.80;80.62
56928;BME280;60850;52.502;13.426;2023-04-23T01:57:37;100243.50;;;14.81;80.95
56928;BME280;60850;52.502;13.426;2023-04-23T02:00:07;100240.84;;;14.81;81.72
56928;BME280;60850;52.502;13.426;2023-04-23T02:02:36;100230.16;;;14.79;83.42
56928;BME280;60850;52.502;13.426;2023-04-23T02:05:09;100234.59;;;14.80;84.31
56928;BME280;60850;52.502;13.426;2023-04-23T02:07:36;100235.59;;;14.78;85.61
56928;BME280;60850;52.502;13.426;2023-04-23T02:10:03;100226.59;;;14.79;87.77
56928;BME280;60850;52.502;13.426;2023-04-23T02:12:31;100234.75;;;14.77;90.00
56928;BME280;60850;52.502;13.426;2023-04-23T02:14:59;100216.91;;;14.76;92.36
56928;BME280;60850;52.502;13.426;2023-04-23T02:17:27;100228.59;;;14.75;99.30
56928;BME280;60850;52.502;13.426;2023-04-23T02:19:54;100225.34;;;14.69;100.00
56928;BME280;60850;52.502;13.426;2023-04-23T02:22:21;100224.97;;;14.59;100.00
56928;BME280;60850;52.502;13.426;2023-04-23T02:24:50;100221.66;;;14.54;100.00
56928;BME280;60850;52.502;13.426;2023-04-23T02:27:17;100221.97;;;14.48;100.00
56928;BME280;60850;52.502;13.426;2023-04-23T02:29:44;100222.22;;;14.42;100.00
56928;BME280;60850;52.502;13.426;2023-04-23T02:32:12;100230.50;;;14.37;100.00
56928;BME280;60850;52.502;13.426;2023-04-23T02:34:40;100230.97;;;14.28;100.00
56928;BME280;60850;52.502;13.426;2023-04-23T02:37:07;100230.41;;;14.21;100.00
56928;BME280;60850;52.502;13.426;2023-04-23T02:39:34;100232.31;;;14.19;100.00
56928;BME280;60850;52.502;13.426;2023-04-23T02:42:03;100236.94;;;14.16;100.00
56928;BME280;60850;52.502;13.426;2023-04-23T02:44:30;100230.88;;;14.12;100.00
56928;BME280;60850;52.502;13.426;2023-04-23T02:46:57;100234.50;;;14.11;100.00
56928;BME280;60850;52.502;13.426;2023-04-23T02:49:26;100224.78;;;14.09;100.00
56928;BME280;60850;52.502;13.426;2023-04-23T02:51:52;100221.22;;;14.08;100.00
56928;BME280;60850;52.502;13.426;2023-04-23T02:54:20;100219.50;;;14.07;100.00
56928;BME280;60850;52.502;13.426;2023-04-23T02:56:46;100218.72;;;14.05;100.00
56928;BME280;60850;52.502;13.426;2023-04-23T02:59:14;100218.72;;;14.05;100.00
56928;BME280;60850;52.502;13.426;2023-04-23T03:01:41;100217.06;;;14.02;100.00
56928;BME280;60850;52.502;13.426;2023-04-23T03:04:08;100213.66;;;13.99;100.00
56928;BME280;60850;52.502;13.426;2023-04-23T03:06:36;100208.38;;;13.97;100.00
56928;BME280;60850;52.502;13.426;2023-04-23T03:09:03;100214.81;;;13.93;100.00
56928;BME280;60850;52.502;13.426;2023-04-23T03:11:30;100213.06;;;13.92;100.00
56928;BME280;60850;52.502;13.426;2023-04-23T03:13:57;100206.94;;;13.90;100.00
56928;BME280;60850;52.502;13.426;2023-04-23T03:16:25;100213.06;;;13.92;100.00
56928;BME280;60850;52.502;13.426;2023-04-23T03:18:52;100208.75;;;13.90;100.00
56928;BME280;60850;52.502;13.426;2023-04-23T03:21:19;100224.66;;;13.93;100.00
56928;BME280;60850;52.502;13.426;2023-04-23T03:23:48;100220.03;;;13.96;100.00
56928;BME280;60850;52.502;13.426;2023-04-23T03:26:15;100221.00;;;13.95;100.00
56928;BME280;60850;52.502;13.426;2023-04-23T03:28:42;100220.09;;;13.95;100.00
56928;BME280;60850;52.502;13.426;2023-04-23T03:31:09;100223.78;;;13.92;100.00
56928;BME280;60850;52.502;13.426;2023-04-23T03:33:36;100215.84;;;13.91;100.00
56928;BME280;60850;52.502;13.426;2023-04-23T03:36:03;100218.34;;;13.94;100.00
56928;BME280;60850;52.502;13.426;2023-04-23T03:38:31;100212.22;;;13.92;100.00
56928;BME280;60850;52.502;13.426;2023-04-23T03:40:59;100214.03;;;13.91;100.00
56928;BME280;60850;52.502;13.426;2023-04-23T03:43:26;100211.63;;;13.85;100.00
56928;BME280;60850;52.502;13.426;2023-04-23T03:45:53;100206.38;;;13.84;100.00
56928;BME280;60850;52.502;13.426;2023-04-23T03:48:20;100212.50;;;13.86;100.00
56928;BME280;60850;52.502;13.426;2023-04-23T03:50:47;100209.91;;;13.84;100.00
56928;BME280;60850;52.502;13.426;2023-04-23T03:53:14;100207.88;;;13.89;100.00
56928;BME280;60850;52.502;13.426;2023-04-23T03:55:42;100205.81;;;13.94;100.00
56928;BME280;60850;52.502;13.426;2023-04-23T03:58:10;100202.94;;;13.99;100.00
56928;BME280;60850;52.502;13.426;2023-04-23T04:00:37;100193.00;;;14.01;100.00
56928;BME280;60850;52.502;13.426;2023-04-23T04:03:04;100192.03;;;14.02;100.00
56928;BME280;60850;52.502;13.426;2023-04-23T04:05:32;100191.13;;;14.03;100.00
56928;BME280;60850;52.502;13.426;2023-04-23T04:07:59;100194.59;;;14.05;100.00
56928;BME280;60850;52.502;13.426;2023-04-23T04:10:27;100190.00;;;14.07;100.00
56928;BME280;60850;52.502;13.426;2023-04-23T04:12:54;100186.25;;;14.11;100.00
56928;BME280;60850;52.502;13.426;2023-04-23T04:15:22;100193.19;;;14.15;100.00
56928;BME280;60850;52.502;13.426;2023-04-23T04:17:49;100194.13;;;14.14;100.00
56928;BME280;60850;52.502;13.426;2023-04-23T04:20:16;59410.25;;;-144.60;100.00
56928;BME280;60850;52.502;13.426;2023-04-23T04:22:44;59410.25;;;-144.60;100.00
56928;BME280;60850;52.502;13.426;2023-04-23T04:25:11;59410.25;;;-144.60;100.00
56928;BME280;60850;52.502;13.426;2023-04-23T04:27:38;59410.25;;;-144.60;100.00
56928;BME280;60850;52.502;13.426;2023-04-23T04:30:07;59410.25;;;-144.60;100.00
56928;BME280;60850;52.502;13.426;2023-04-23T04:32:35;59410.25;;;-144.60;100.00
56928;BME280;60850;52.502;13.426;2023-04-23T04:35:04;59410.25;;;-144.60;100.00
56928;BME280;60850;52.502;13.426;2023-04-23T04:37:31;59410.25;;;-144.60;100.00
56928;BME280;60850;52.502;13.426;2023-04-23T04:39:58;59410.25;;;-144.60;100.00
56928;BME280;60850;52.502;13.426;2023-04-23T04:42:26;59410.25;;;-144.60;100.00
56928;BME280;60850;52.502;13.426;2023-04-23T04:44:52;59410.25;;;-144.60;100.00
56928;BME280;60850;52.502;13.426;2023-04-23T04:47:23;59410.25;;;-144.60;100.00
56928;BME280;60850;52.502;13.426;2023-04-23T04:49:51;59410.25;;;-144.60;100.00
56928;BME280;60850;52.502;13.426;2023-04-23T04:52:22;59410.25;;;-144.60;100.00
56928;BME280;60850;52.502;13.426;2023-04-23T04:54:49;59410.25;;;-144.60;100.00
56928;BME280;60850;52.502;13.426;2023-04-23T04:57:16;59410.25;;;-144.60;100.00
56928;BME280;60850;52.502;13.426;2023-04-23T04:59:44;59410.25;;;-144.60;100.00
56928;BME280;60850;52.502;13.426;2023-04-23T05:02:11;59410.25;;;-144.60;100.00
56928;BME280;60850;52.502;13.426;2023-04-23T05:04:38;59410.25;;;-144.60;100.00
56928;BME280;60850;52.502;13.426;2023-04-23T05:07:07;59410.25;;;-144.60;100.00
56928;BME280;60850;52.502;13.426;2023-04-23T05:09:34;59410.25;;;-144.60;100.00
56928;BME280;60850;52.502;13.426;2023-04-23T05:12:01;59410.25;;;-144.60;100.00
56928;BME280;60850;52.502;13.426;2023-04-23T05:14:28;59410.25;;;-144.60;100.00
56928;BME280;60850;52.502;13.426;2023-04-23T05:16:55;59410.25;;;-144.60;100.00
56928;BME280;60850;52.502;13.426;2023-04-23T05:19:22;59410.25;;;-144.60;100.00
56928;BME280;60850;52.502;13.426;2023-04-23T05:21:49;59410.25;;;-144.60;100.00
56928;BME280;60850;52.502;13.426;2023-04-23T05:24:17;59410.25;;;-144.60;100.00
56928;BME280;60850;52.502;13.426;2023-04-23T05:26:45;59410.25;;;-144.60;100.00
56928;BME280;60850;52.502;13.426;2023-04-23T05:29:11;59410.25;;;-144.60;100.00
56928;BME280;60850;52.502;13.426;2023-04-23T05:31:44;59410.25;;;-144.60;100.00
56928;BME280;60850;52.502;13.426;2023-04-23T05:34:11;59410.25;;;-144.60;100.00
56928;BME280;60850;52.502;13.426;2023-04-23T05:36:38;59410.25;;;-144.60;100.00
56928;BME280;60850;52.502;13.426;2023-04-23T05:39:05;59410.25;;;-144.60;100.00
56928;BME280;60850;52.502;13.426;2023-04-23T05:41:34;59410.25;;;-144.60;100.00
56928;BME280;60850;52.502;13.426;2023-04-23T05:44:01;59410.25;;;-144.60;100.00
56928;BME280;60850;52.502;13.426;2023-04-23T05:46:28;59410.25;;;-144.60;100.00
56928;BME280;60850;52.502;13.426;2023-04-23T05:48:55;59410.25;;;-144.60;100.00
56928;BME280;60850;52.502;13.426;2023-04-23T05:51:22;59410.25;;;-144.60;100.00
56928;BME280;60850;52.502;13.426;2023-04-23T05:53:49;59410.25;;;-144.60;100.00
56928;BME280;60850;52.502;13.426;2023-04-23T05:56:16;59410.25;;;-144.60;100.00
56928;BME280;60850;52.502;13.426;2023-04-23T05:58:45;59410.25;;;-144.60;100.00
56928;BME280;60850;52.502;13.426;2023-04-23T06:01:12;59410.25;;;-144.60;100.00
56928;BME280;60850;52.502;13.426;2023-04-23T06:03:39;59410.25;;;-144.60;100.00
56928;BME280;60850;52.502;13.426;2023-04-23T06:06:10;59410.25;;;-144.60;100.00
56928;BME280;60850;52.502;13.426;2023-04-23T06:08:37;59410.25;;;-144.60;100.00
56928;BME280;60850;52.502;13.426;2023-04-23T06:11:04;59410.25;;;-144.60;100.00
56928;BME280;60850;52.502;13.426;2023-04-23T06:13:32;59410.25;;;-144.60;100.00
56928;BME280;60850;52.502;13.426;2023-04-23T06:16:06;59410.25;;;-144.60;100.00
56928;BME280;60850;52.502;13.426;2023-04-23T06:18:33;59410.25;;;-144.60;100.00
56928;BME280;60850;52.502;13.426;2023-04-23T06:21:00;59410.25;;;-144.60;100.00
56928;BME280;60850;52.502;13.426;2023-04-23T06:23:28;59410.25;;;-144.60;100.00
56928;BME280;60850;52.502;13.426;2023-04-23T06:25:55;59410.25;;;-144.60;100.00
56928;BME280;60850;52.502;13.426;2023-04-23T06:28:22;59410.25;;;-144.60;100.00
56928;BME280;60850;52.502;13.426;2023-04-23T06:30:49;59410.25;;;-144.60;100.00
56928;BME280;60850;52.502;13.426;2023-04-23T06:35:47;59410.25;;;-144.60;100.00
56928;BME280;60850;52.502;13.426;2023-04-23T06:38:14;59410.25;;;-144.60;100.00
56928;BME280;60850;52.502;13.426;2023-04-23T06:40:43;59410.25;;;-144.60;100.00
56928;BME280;60850;52.502;13.426;2023-04-23T06:43:10;59410.25;;;-144.60;100.00
56928;BME280;60850;52.502;13.426;2023-04-23T06:45:39;59410.25;;;-144.60;100.00
56928;BME280;60850;52.502;13.426;2023-04-23T06:48:06;59410.25;;;-144.60;100.00
56928;BME280;60850;52.502;13.426;2023-04-23T06:50:32;59410.25;;;-144.60;100.00
56928;BME280;60850;52.502;13.426;2023-04-23T06:53:01;59410.25;;;-144.60;100.00
56928;BME280;60850;52.502;13.426;2023-04-23T06:55:28;59410.25;;;-144.60;100.00
56928;BME280;60850;52.502;13.426;2023-04-23T06:57:56;59410.25;;;-144.60;100.00
56928;BME280;60850;52.502;13.426;2023-04-23T07:00:24;59410.25;;;-144.60;100.00
56928;BME280;60850;52.502;13.426;2023-04-23T07:02:53;59410.25;;;-144.60;100.00
56928;BME280;60850;52.502;13.426;2023-04-23T07:05:20;59410.25;;;-144.60;100.00
56928;BME280;60850;52.502;13.426;2023-04-23T07:07:47;59410.25;;;-144.60;100.00
56928;BME280;60850;52.502;13.426;2023-04-23T07:10:16;59410.25;;;-144.60;100.00
56928;BME280;60850;52.502;13.426;2023-04-23T07:12:43;59410.25;;;-144.60;100.00
56928;BME280;60850;52.502;13.426;2023-04-23T07:15:10;59410.25;;;-144.60;100.00
56928;BME280;60850;52.502;13.426;2023-04-23T07:17:37;59410.25;;;-144.60;100.00
56928;BME280;60850;52.502;13.426;2023-04-23T07:20:05;59410.25;;;-144.60;100.00
56928;BME280;60850;52.502;13.426;2023-04-23T07:22:33;59410.25;;;-144.60;100.00
56928;BME280;60850;52.502;13.426;2023-04-23T07:25:00;59410.25;;;-144.60;100.00
56928;BME280;60850;52.502;13.426;2023-04-23T07:27:30;59410.25;;;-144.60;100.00
56928;BME280;60850;52.502;13.426;2023-04-23T07:29:57;59410.25;;;-144.60;100.00
56928;BME280;60850;52.502;13.426;2023-04-23T07:32:26;59410.25;;;-144.60;100.00
56928;BME280;60850;52.502;13.426;2023-04-23T07:34:53;59410.25;;;-144.60;100.00
56928;BME280;60850;52.502;13.426;2023-04-23T07:37:21;59410.25;;;-144.60;100.00
56928;BME280;60850;52.502;13.426;2023-04-23T07:39:48;59410.25;;;-144.60;100.00
56928;BME280;60850;52.502;13.426;2023-04-23T07:42:15;59410.25;;;-144.60;100.00
56928;BME280;60850;52.502;13.426;2023-04-23T07:44:43;59410.25;;;-144.60;100.00
56928;BME280;60850;52.502;13.426;2023-04-23T07:47:11;59410.25;;;-144.60;100.00
56928;BME280;60850;52.502;13.426;2023-04-23T07:49:38;59410.25;;;-144.60;100.00
56928;BME280;60850;52.502;13.426;2023-04-23T07:52:05;59410.25;;;-144.60;100.00
56928;BME280;60850;52.502;13.426;2023-04-23T07:54:32;59410.25;;;-144.60;100.00
56928;BME280;60850;52.502;13.426;2023-04-23T07:56:59;59410.25;;;-144.60;100.00
56928;BME280;60850;52.502;13.426;2023-04-23T07:59:27;59410.25;;;-144.60;100.00
56928;BME280;60850;52.502;13.426;2023-04-23T08:01:56;59410.25;;;-144.60;100.00
56928;BME280;60850;52.502;13.426;2023-04-23T08:04:23;59410.25;;;-144.60;100.00
56928;BME280;60850;52.502;13.426;2023-04-23T08:06:52;59410.25;;;-144.60;100.00
56928;BME280;60850;52.502;13.426;2023-04-23T08:09:19;59410.25;;;-144.60;100.00
56928;BME280;60850;52.502;13.426;2023-04-23T08:11:46;59410.25;;;-144.60;100.00
56928;BME280;60850;52.502;13.426;2023-04-23T08:14:13;59410.25;;;-144.60;100.00
56928;BME280;60850;52.502;13.426;2023-04-23T08:16:40;59410.25;;;-144.60;100.00
56928;BME280;60850;52.502;13.426;2023-04-23T08:19:09;59410.25;;;-144.60;100.00
56928;BME280;60850;52.502;13.426;2023-04-23T08:21:36;59410.25;;;-144.60;100.00
56928;BME280;60850;52.502;13.426;2023-04-23T08:24:04;59410.25;;;-144.60;100.00
56928;BME280;60850;52.502;13.426;2023-04-23T08:26:32;59410.25;;;-144.60;100.00
56928;BME280;60850;52.502;13.426;2023-04-23T08:28:59;59410.25;;;-144.60;100.00
56928;BME280;60850;52.502;13.426;2023-04-23T08:31:26;59410.25;;;-144.60;100.00
56928;BME280;60850;52.502;13.426;2023-04-23T08:33:53;59410.25;;;-144.60;100.00
56928;BME280;60850;52.502;13.426;2023-04-23T08:36:21;59410.25;;;-144.60;100.00
56928;BME280;60850;52.502;13.426;2023-04-23T08:38:48;59410.25;;;-144.60;100.00
56928;BME280;60850;52.502;13.426;2023-04-23T08:41:17;59410.25;;;-144.60;100.00
56928;BME280;60850;52.502;13.426;2023-04-23T08:43:50;59410.25;;;-144.60;100.00
56928;BME280;60850;52.502;13.426;2023-04-23T08:46:18;59410.25;;;-144.60;100.00
56928;BME280;60850;52.502;13.426;2023-04-23T08:48:46;59410.25;;;-144.60;100.00
56928;BME280;60850;52.502;13.426;2023-04-23T08:51:18;59410.25;;;-144.60;100.00
56928;BME280;60850;52.502;13.426;2023-04-23T08:53:49;59410.25;;;-144.60;100.00
56928;BME280;60850;52.502;13.426;2023-04-23T08:56:18;59410.25;;;-144.60;100.00
56928;BME280;60850;52.502;13.426;2023-04-23T08:58:46;59410.25;;;-144.60;100.00
56928;BME280;60850;52.502;13.426;2023-04-23T09:01:14;59410.25;;;-144.60;100.00
56928;BME280;60850;52.502;13.426;2023-04-23T09:03:41;59410.25;;;-144.60;100.00
56928;BME280;60850;52.502;13.426;2023-04-23T09:06:08;59410.25;;;-144.60;100.00
56928;BME280;60850;52.502;13.426;2023-04-23T09:08:35;59410.25;;;-144.60;100.00
56928;BME280;60850;52.502;13.426;2023-04-23T09:11:04;59410.25;;;-144.60;100.00
56928;BME280;60850;52.502;13.426;2023-04-23T09:13:32;59410.25;;;-144.60;100.00
56928;BME280;60850;52.502;13.426;2023-04-23T09:16:01;59410.25;;;-144.60;100.00
56928;BME280;60850;52.502;13.426;2023-04-23T09:18:28;59410.25;;;-144.60;100.00
56928;BME280;60850;52.502;13.426;2023-04-23T09:20:55;59410.25;;;-144.60;100.00
56928;BME280;60850;52.502;13.426;2023-04-23T09:23:22;59410.25;;;-144.60;100.00
56928;BME280;60850;52.502;13.426;2023-04-23T09:25:49;59410.25;;;-144.60;100.00
56928;BME280;60850;52.502;13.426;2023-04-23T09:28:18;59410.25;;;-144.60;100.00
56928;BME280;60850;52.502;13.426;2023-04-23T09:30:47;59410.25;;;-144.60;100.00
56928;BME280;60850;52.502;13.426;2023-04-23T09:33:15;59410.25;;;-144.60;100.00
56928;BME280;60850;52.502;13.426;2023-04-23T09:35:43;59410.25;;;-144.60;100.00
56928;BME280;60850;52.502;13.426;2023-04-23T09:38:13;59410.25;;;-144.60;100.00
56928;BME280;60850;52.502;13.426;2023-04-23T09:40:40;59410.25;;;-144.60;100.00
56928;BME280;60850;52.502;13.426;2023-04-23T09:43:09;59410.25;;;-144.60;100.00
56928;BME280;60850;52.502;13.426;2023-04-23T09:45:46;59410.25;;;-144.60;100.00
56928;BME280;60850;52.502;13.426;2023-04-23T09:48:13;59410.25;;;-144.60;100.00
56928;BME280;60850;52.502;13.426;2023-04-23T09:50:40;59410.25;;;-144.60;100.00
56928;BME280;60850;52.502;13.426;2023-04-23T09:53:08;59410.25;;;-144.60;100.00
56928;BME280;60850;52.502;13.426;2023-04-23T09:55:36;59410.25;;;-144.60;100.00
56928;BME280;60850;52.502;13.426;2023-04-23T09:58:04;59410.25;;;-144.60;100.00
56928;BME280;60850;52.502;13.426;2023-04-23T10:00:34;59410.25;;;-144.60;100.00
56928;BME280;60850;52.502;13.426;2023-04-23T10:03:03;59410.25;;;-144.60;100.00
56928;BME280;60850;52.502;13.426;2023-04-23T10:05:31;59410.25;;;-144.60;100.00
56928;BME280;60850;52.502;13.426;2023-04-23T10:08:04;59410.25;;;-144.60;100.00
56928;BME280;60850;52.502;13.426;2023-04-23T10:10:33;59410.25;;;-144.60;100.00
56928;BME280;60850;52.502;13.426;2023-04-23T10:13:00;59410.25;;;-144.60;100.00
56928;BME280;60850;52.502;13.426;2023-04-23T10:15:27;59410.25;;;-144.60;100.00
56928;BME280;60850;52.502;13.426;2023-04-23T10:17:54;59410.25;;;-144.60;100.00
56928;BME280;60850;52.502;13.426;2023-04-23T10:20:24;59410.25;;;-144.60;100.00
56928;BME280;60850;52.502;13.426;2023-04-23T10:22:52;59410.25;;;-144.60;100.00
56928;BME280;60850;52.502;13.426;2023-04-23T10:25:22;59410.25;;;-144.60;100.00
56928;BME280;60850;52.502;13.426;2023-04-23T10:27:52;59410.25;;;-144.60;100.00
56928;BME280;60850;52.502;13.426;2023-04-23T10:30:21;59410.25;;;-144.60;100.00
56928;BME280;60850;52.502;13.426;2023-04-23T10:32:48;59410.25;;;-144.60;100.00
56928;BME280;60850;52.502;13.426;2023-04-23T10:35:16;59410.25;;;-144.60;100.00
56928;BME280;60850;52.502;13.426;2023-04-23T10:37:45;59410.25;;;-144.60;100.00
56928;BME280;60850;52.502;13.426;2023-04-23T10:40:15;59410.25;;;-144.60;100.00
56928;BME280;60850;52.502;13.426;2023-04-23T10:42:44;59410.25;;;-144.60;100.00
56928;BME280;60850;52.502;13.426;2023-04-23T10:45:13;59410.25;;;-144.60;100.00
56928;BME280;60850;52.502;13.426;2023-04-23T10:47:41;59410.25;;;-144.60;100.00
56928;BME280;60850;52.502;13.426;2023-04-23T10:50:21;59410.25;;;-144.60;100.00
56928;BME280;60850;52.502;13.426;2023-04-23T10:52:50;59410.25;;;-144.60;100.00
56928;BME280;60850;52.502;13.426;2023-04-23T10:55:20;59410.25;;;-144.60;100.00
56928;BME280;60850;52.502;13.426;2023-04-23T10:57:55;59410.25;;;-144.60;100.00
56928;BME280;60850;52.502;13.426;2023-04-23T11:00:23;59410.25;;;-144.60;100.00
56928;BME280;60850;52.502;13.426;2023-04-23T11:02:52;59410.25;;;-144.60;100.00
56928;BME280;60850;52.502;13.426;2023-04-23T11:05:21;59410.25;;;-144.60;100.00
56928;BME280;60850;52.502;13.426;2023-04-23T11:08:05;59410.25;;;-144.60;100.00
56928;BME280;60850;52.502;13.426;2023-04-23T11:10:33;59410.25;;;-144.60;100.00
56928;BME280;60850;52.502;13.426;2023-04-23T11:13:21;59410.25;;;-144.60;100.00
56928;BME280;60850;52.502;13.426;2023-04-23T11:16:14;59410.25;;;-144.60;100.00
56928;BME280;60850;52.502;13.426;2023-04-23T11:19:00;59410.25;;;-144.60;100.00
56928;BME280;60850;52.502;13.426;2023-04-23T11:21:59;59410.25;;;-144.60;100.00
56928;BME280;60850;52.502;13.426;2023-04-23T11:24:29;59410.25;;;-144.60;100.00
56928;BME280;60850;52.502;13.426;2023-04-23T11:26:57;59410.25;;;-144.60;100.00
56928;BME280;60850;52.502;13.426;2023-04-23T11:29:26;59410.25;;;-144.60;100.00
56928;BME280;60850;52.502;13.426;2023-04-23T11:31:54;59410.25;;;-144.60;100.00
56928;BME280;60850;52.502;13.426;2023-04-23T11:34:21;59410.25;;;-144.60;100.00
56928;BME280;60850;52.502;13.426;2023-04-23T11:36:51;59410.25;;;-144.60;100.00
56928;BME280;60850;52.502;13.426;2023-04-23T11:39:19;59410.25;;;-144.60;100.00
56928;BME280;60850;52.502;13.426;2023-04-23T11:41:47;59410.25;;;-144.60;100.00
56928;BME280;60850;52.502;13.426;2023-04-23T11:44:14;59410.25;;;-144.60;100.00
56928;BME280;60850;52.502;13.426;2023-04-23T11:46:42;59410.25;;;-144.60;100.00
56928;BME280;60850;52.502;13.426;2023-04-23T11:49:09;59410.25;;;-144.60;100.00
56928;BME280;60850;52.502;13.426;2023-04-23T11:51:40;59410.25;;;-144.60;100.00
56928;BME280;60850;52.502;13.426;2023-04-23T11:54:08;59410.25;;;-144.60;100.00
56928;BME280;60850;52.502;13.426;2023-04-23T11:56:36;59410.25;;;-144.60;100.00
56928;BME280;60850;52.502;13.426;2023-04-23T11:59:04;59410.25;;;-144.60;100.00
56928;BME280;60850;52.502;13.426;2023-04-23T12:01:39;59410.25;;;-144.60;100.00
56928;BME280;60850;52.502;13.426;2023-04-23T12:04:14;59410.25;;;-144.60;100.00
56928;BME280;60850;52.502;13.426;2023-04-23T12:06:44;59410.25;;;-144.60;100.00
56928;BME280;60850;52.502;13.426;2023-04-23T12:09:12;59410.25;;;-144.60;100.00
56928;BME280;60850;52.502;13.426;2023-04-23T12:11:39;59410.25;;;-144.60;100.00
56928;BME280;60850;52.502;13.426;2023-04-23T12:14:09;59410.25;;;-144.60;100.00
56928;BME280;60850;52.502;13.426;2023-04-23T12:16:38;59410.25;;;-144.60;100.00
56928;BME280;60850;52.502;13.426;2023-04-23T12:19:12;59410.25;;;-144.60;100.00
56928;BME280;60850;52.502;13.426;2023-04-23T12:21:47;59410.25;;;-144.60;100.00
56928;BME280;60850;52.502;13.426;2023-04-23T12:24:14;59410.25;;;-144.60;100.00
56928;BME280;60850;52.502;13.426;2023-04-23T12:26:41;59410.25;;;-144.60;100.00
56928;BME280;60850;52.502;13.426;2023-04-23T12:29:12;59410.25;;;-144.60;100.00
56928;BME280;60850;52.502;13.426;2023-04-23T12:31:39;59410.25;;;-144.60;100.00
56928;BME280;60850;52.502;13.426;2023-04-23T12:36:44;59410.25;;;-144.60;100.00